Time;durP1;ratioP1;P1;durP2;ratioP2;P2;SDS_P1;SDS_P2;PMS_P1;PMS_P2;Temp;Humidity;BMP_temperature;BMP_pressure;BME280_temperature;BME280_humidity;BME280_pressure;Samples;Min_cycle;Max_cycle;Signal;HPM_P1;HPM_P2
2021/10/31 00:01:42;;;;;;;22.27;14.30;;;;;;;;;;5019932;28;20640;-67
2021/10/31 00:04:07;;;;;;;24.17;16.33;;;;;;;;;;5026460;28;20709;-68
2021/10/31 00:06:33;;;;;;;20.60;14.17;;;;;;;;;;5015807;28;20174;-72
2021/10/31 00:08:58;;;;;;;21.13;12.80;;;;;;;;;;5012481;28;20270;-70
2021/10/31 00:11:23;;;;;;;18.40;13.47;;;;;;;;;;5014966;28;20173;-73
2021/10/31 00:13:49;;;;;;;22.83;14.47;;;;;;;;;;5026278;28;20193;-67
2021/10/31 00:16:14;;;;;;;21.70;13.80;;;;;;;;;;5021984;28;20158;-66
2021/10/31 00:18:40;;;;;;;18.63;12.40;;;;;;;;;;5010273;28;20512;-69
2021/10/31 00:21:05;;;;;;;19.93;13.10;;;;;;;;;;5013650;28;20184;-68
2021/10/31 00:23:31;;;;;;;18.33;11.67;;;;;;;;;;5017910;28;20159;-64
2021/10/31 00:25:56;;;;;;;19.60;13.37;;;;;;;;;;5010074;28;20155;-71
2021/10/31 00:28:21;;;;;;;16.93;11.10;;;;;;;;;;5010732;28;20163;-65
2021/10/31 00:30:47;;;;;;;15.87;10.47;;;;;;;;;;5013281;28;20166;-63
2021/10/31 00:33:12;;;;;;;16.50;10.70;;;;;;;;;;5017312;28;20198;-70
2021/10/31 00:35:37;;;;;;;18.07;12.00;;;;;;;;;;5018790;28;20154;-74
2021/10/31 00:38:03;;;;;;;18.80;11.50;;;;;;;;;;5020078;28;20256;-68
2021/10/31 00:40:29;;;;;;;16.97;10.97;;;;;;;;;;5014518;28;20612;-65
2021/10/31 00:42:54;;;;;;;18.50;9.57;;;;;;;;;;5014716;28;20166;-65
2021/10/31 00:45:19;;;;;;;21.87;13.27;;;;;;;;;;5012286;28;20197;-74
2021/10/31 00:47:45;;;;;;;17.53;11.73;;;;;;;;;;5011113;28;21137;-69
2021/10/31 00:50:10;;;;;;;17.70;11.87;;;;;;;;;;5010647;28;20170;-74
2021/10/31 00:52:36;;;;;;;19.83;11.33;;;;;;;;;;5017491;28;20193;-67
2021/10/31 00:55:02;;;;;;;18.60;11.50;;;;;;;;;;5023836;28;20185;-70
2021/10/31 00:57:27;;;;;;;16.90;10.57;;;;;;;;;;5021267;28;20170;-73
2021/10/31 00:59:53;;;;;;;17.13;11.50;;;;;;;;;;5013913;28;20405;-72
2021/10/31 01:02:18;;;;;;;19.83;11.60;;;;;;;;;;5029678;28;20605;-65
2021/10/31 01:04:49;;;;;;;16.10;11.30;;;;;;;;;;5032580;28;20169;-68
2021/10/31 01:07:33;;;;;;;17.70;10.60;;;;;;;;;;5015277;28;20174;-66
2021/10/31 01:10:08;;;;;;;18.33;10.00;;;;;;;;;;5018977;28;20437;-65
2021/10/31 01:12:48;;;;;;;19.27;11.00;;;;;;;;;;5032253;28;20446;-71
2021/10/31 01:15:26;;;;;;;19.47;12.33;;;;;;;;;;5030868;28;20412;-67
2021/10/31 01:17:54;;;;;;;16.30;11.27;;;;;;;;;;5025088;28;20911;-67
2021/10/31 01:20:22;;;;;;;18.50;10.73;;;;;;;;;;5032312;28;20388;-66
2021/10/31 01:23:07;;;;;;;16.67;12.10;;;;;;;;;;5031365;28;20511;-72
2021/10/31 01:25:51;;;;;;;16.93;11.93;;;;;;;;;;5027615;28;20463;-74
2021/10/31 01:28:19;;;;;;;19.43;12.50;;;;;;;;;;5013468;28;20416;-74
2021/10/31 01:30:57;;;;;;;18.87;12.00;;;;;;;;;;5013705;28;20400;-74
2021/10/31 01:33:41;;;;;;;20.43;12.67;;;;;;;;;;5024099;28;20453;-67
2021/10/31 01:36:15;;;;;;;18.20;12.03;;;;;;;;;;5029187;28;20420;-67
2021/10/31 01:38:46;;;;;;;17.20;11.80;;;;;;;;;;5028015;28;20546;-68
2021/10/31 01:41:41;;;;;;;25.87;12.67;;;;;;;;;;5026476;28;20396;-74
2021/10/31 01:44:11;;;;;;;21.27;12.57;;;;;;;;;;5036213;28;20893;-66
2021/10/31 01:46:46;;;;;;;19.20;13.00;;;;;;;;;;5017955;28;20400;-67
2021/10/31 01:49:12;;;;;;;20.77;11.70;;;;;;;;;;5031658;28;20411;-70
2021/10/31 01:51:49;;;;;;;23.97;13.23;;;;;;;;;;5015068;28;20389;-71
2021/10/31 01:54:19;;;;;;;21.10;11.70;;;;;;;;;;5016941;28;20201;-73
2021/10/31 01:56:49;;;;;;;21.20;14.00;;;;;;;;;;5028830;28;20418;-72
2021/10/31 01:59:17;;;;;;;23.73;13.80;;;;;;;;;;5012948;28;20459;-65
2021/10/31 02:01:44;;;;;;;19.90;13.37;;;;;;;;;;5017408;28;20409;-73
2021/10/31 02:04:11;;;;;;;19.13;12.03;;;;;;;;;;5016572;28;20413;-74
2021/10/31 02:06:38;;;;;;;19.97;13.07;;;;;;;;;;5012224;28;20405;-67
2021/10/31 02:09:04;;;;;;;21.87;14.20;;;;;;;;;;5012611;28;20394;-72
2021/10/31 02:11:30;;;;;;;21.03;13.10;;;;;;;;;;5024657;28;20408;-76
2021/10/31 02:13:59;;;;;;;22.27;13.93;;;;;;;;;;5023009;28;20455;-73
2021/10/31 02:16:25;;;;;;;18.23;12.63;;;;;;;;;;5012629;28;20385;-65
2021/10/31 02:18:52;;;;;;;21.60;13.30;;;;;;;;;;5012826;28;20460;-70
2021/10/31 02:21:20;;;;;;;18.67;12.90;;;;;;;;;;5024530;28;20408;-74
2021/10/31 02:23:46;;;;;;;21.03;11.47;;;;;;;;;;5030611;28;20408;-70
2021/10/31 02:26:15;;;;;;;24.97;13.37;;;;;;;;;;5031459;28;20778;-71
2021/10/31 02:28:51;;;;;;;17.83;10.40;;;;;;;;;;5033263;28;20243;-66
2021/10/31 02:31:17;;;;;;;21.60;12.03;;;;;;;;;;5032712;28;20396;-71
2021/10/31 02:33:42;;;;;;;21.00;12.90;;;;;;;;;;5018403;28;20460;-68
2021/10/31 02:36:07;;;;;;;18.23;11.40;;;;;;;;;;5019971;28;20219;-73
2021/10/31 02:38:33;;;;;;;15.97;10.43;;;;;;;;;;5032492;28;20218;-68
2021/10/31 02:40:58;;;;;;;18.30;9.83;;;;;;;;;;5031995;28;20158;-73
2021/10/31 02:43:23;;;;;;;16.33;11.43;;;;;;;;;;5021736;28;20183;-71
2021/10/31 02:45:48;;;;;;;16.27;10.70;;;;;;;;;;5029913;28;20245;-68
2021/10/31 02:48:15;;;;;;;22.50;11.27;;;;;;;;;;5014052;28;20178;-62
2021/10/31 02:50:43;;;;;;;19.03;10.70;;;;;;;;;;5012474;28;20196;-67
2021/10/31 02:53:21;;;;;;;24.83;10.13;;;;;;;;;;5028017;28;20510;-68
2021/10/31 02:55:52;;;;;;;19.37;11.13;;;;;;;;;;5012411;28;20413;-67
2021/10/31 02:58:23;;;;;;;16.13;10.17;;;;;;;;;;5014435;28;20974;-66
2021/10/31 03:00:52;;;;;;;16.60;10.90;;;;;;;;;;5025062;28;20568;-66
2021/10/31 03:03:17;;;;;;;14.83;11.50;;;;;;;;;;5011537;28;20927;-68
2021/10/31 03:05:48;;;;;;;18.30;11.50;;;;;;;;;;5012358;28;20478;-67
2021/10/31 03:08:14;;;;;;;14.07;10.00;;;;;;;;;;5012333;28;20680;-67
2021/10/31 03:10:46;;;;;;;16.00;9.67;;;;;;;;;;5015158;28;20415;-75
2021/10/31 03:13:11;;;;;;;13.70;9.57;;;;;;;;;;5031366;28;20209;-68
2021/10/31 03:15:36;;;;;;;20.57;10.20;;;;;;;;;;5017544;28;20402;-68
2021/10/31 03:18:01;;;;;;;14.90;9.00;;;;;;;;;;5011293;28;20572;-69
2021/10/31 03:20:28;;;;;;;16.23;9.73;;;;;;;;;;5021176;28;20166;-66
2021/10/31 03:22:53;;;;;;;22.47;10.67;;;;;;;;;;5031794;28;20169;-66
2021/10/31 03:25:18;;;;;;;19.50;10.80;;;;;;;;;;5018761;28;20503;-69
2021/10/31 03:27:44;;;;;;;17.07;10.97;;;;;;;;;;5031934;28;20507;-66
2021/10/31 03:30:10;;;;;;;16.30;10.13;;;;;;;;;;5025043;28;20151;-65
2021/10/31 03:32:35;;;;;;;16.30;9.97;;;;;;;;;;5011697;28;20546;-66
2021/10/31 03:35:00;;;;;;;14.13;9.40;;;;;;;;;;5011787;28;20150;-74
2021/10/31 03:37:26;;;;;;;16.33;9.27;;;;;;;;;;5012632;28;20217;-67
2021/10/31 03:39:51;;;;;;;16.63;10.10;;;;;;;;;;5030010;28;20182;-67
2021/10/31 03:42:16;;;;;;;17.67;9.97;;;;;;;;;;5016075;28;20568;-75
2021/10/31 03:44:48;;;;;;;15.53;10.00;;;;;;;;;;5016405;28;20165;-68
2021/10/31 03:47:14;;;;;;;17.00;11.00;;;;;;;;;;5020333;28;20164;-66
2021/10/31 03:49:39;;;;;;;14.93;9.70;;;;;;;;;;5030757;28;20400;-72
2021/10/31 03:52:05;;;;;;;17.10;9.47;;;;;;;;;;5026003;28;20447;-71
2021/10/31 03:54:30;;;;;;;15.83;9.73;;;;;;;;;;5030175;28;20194;-71
2021/10/31 03:56:56;;;;;;;15.30;10.07;;;;;;;;;;5031091;28;20166;-66
2021/10/31 03:59:21;;;;;;;16.70;9.40;;;;;;;;;;5030349;28;20154;-67
2021/10/31 04:01:46;;;;;;;14.33;8.90;;;;;;;;;;5013832;28;20166;-71
2021/10/31 04:04:11;;;;;;;13.00;8.27;;;;;;;;;;5011293;28;20166;-68
2021/10/31 04:06:37;;;;;;;14.77;8.70;;;;;;;;;;5011409;28;20158;-72
2021/10/31 04:09:02;;;;;;;13.10;8.70;;;;;;;;;;5021295;28;20162;-71
2021/10/31 04:11:27;;;;;;;16.20;9.73;;;;;;;;;;5030862;28;20160;-71
2021/10/31 04:13:54;;;;;;;18.63;8.87;;;;;;;;;;5027241;28;20217;-68
2021/10/31 04:16:19;;;;;;;12.20;8.73;;;;;;;;;;5011550;28;20529;-67
2021/10/31 04:18:44;;;;;;;13.00;8.90;;;;;;;;;;5011140;28;20958;-67
2021/10/31 04:21:10;;;;;;;13.10;8.43;;;;;;;;;;5010936;28;20168;-67
2021/10/31 04:23:35;;;;;;;16.70;9.77;;;;;;;;;;5014849;28;20150;-68
2021/10/31 04:26:00;;;;;;;14.33;8.57;;;;;;;;;;5030455;28;20513;-77
2021/10/31 04:28:26;;;;;;;14.40;8.83;;;;;;;;;;5030650;28;20253;-66
2021/10/31 04:30:51;;;;;;;14.90;8.73;;;;;;;;;;5030235;28;20628;-69
2021/10/31 04:33:16;;;;;;;13.50;8.17;;;;;;;;;;5026558;28;20198;-68
2021/10/31 04:35:42;;;;;;;18.47;8.87;;;;;;;;;;5019582;28;20157;-68
2021/10/31 04:38:14;;;;;;;16.70;8.50;;;;;;;;;;5015008;28;20217;-75
2021/10/31 04:40:40;;;;;;;15.67;9.80;;;;;;;;;;5012802;28;20237;-67
2021/10/31 04:43:10;;;;;;;15.43;9.33;;;;;;;;;;5012634;28;20514;-67
2021/10/31 04:45:36;;;;;;;16.17;8.20;;;;;;;;;;5010851;28;20406;-69
2021/10/31 04:48:01;;;;;;;12.30;8.87;;;;;;;;;;5010788;28;20444;-69
2021/10/31 04:50:26;;;;;;;14.43;8.03;;;;;;;;;;5018943;28;20165;-67
2021/10/31 04:52:52;;;;;;;15.63;9.00;;;;;;;;;;5022526;28;20194;-67
2021/10/31 04:55:17;;;;;;;14.40;8.83;;;;;;;;;;5010614;28;20240;-78
2021/10/31 04:57:42;;;;;;;16.00;8.83;;;;;;;;;;5011170;28;20201;-68
2021/10/31 05:00:08;;;;;;;12.80;8.80;;;;;;;;;;5023851;28;20173;-66
2021/10/31 05:02:33;;;;;;;12.17;8.50;;;;;;;;;;5030431;28;20261;-75
2021/10/31 05:04:59;;;;;;;12.37;8.53;;;;;;;;;;5010838;28;20159;-74
2021/10/31 05:07:25;;;;;;;12.43;8.37;;;;;;;;;;5011201;28;20159;-74
2021/10/31 05:09:50;;;;;;;16.10;7.90;;;;;;;;;;5028138;28;20669;-76
2021/10/31 05:12:17;;;;;;;14.83;9.23;;;;;;;;;;5030293;28;20432;-71
2021/10/31 05:14:42;;;;;;;16.93;8.40;;;;;;;;;;5029193;28;20552;-74
2021/10/31 05:17:08;;;;;;;10.07;6.90;;;;;;;;;;5029823;28;20409;-67
2021/10/31 05:19:33;;;;;;;14.33;8.00;;;;;;;;;;5029930;28;20248;-71
2021/10/31 05:21:58;;;;;;;18.57;8.10;;;;;;;;;;5014369;28;20162;-70
2021/10/31 05:24:24;;;;;;;15.23;8.20;;;;;;;;;;5010492;28;20586;-74
2021/10/31 05:26:49;;;;;;;13.90;8.53;;;;;;;;;;5021197;28;20181;-66
2021/10/31 05:29:15;;;;;;;15.20;9.17;;;;;;;;;;5029021;28;20257;-70
2021/10/31 05:31:41;;;;;;;15.63;9.47;;;;;;;;;;5029122;28;20166;-77
2021/10/31 05:34:06;;;;;;;15.57;7.77;;;;;;;;;;5029779;28;20849;-69
2021/10/31 05:36:34;;;;;;;14.73;7.83;;;;;;;;;;5028215;28;20162;-69
2021/10/31 05:38:59;;;;;;;14.83;8.53;;;;;;;;;;5029756;28;20166;-67
2021/10/31 05:41:25;;;;;;;16.83;9.23;;;;;;;;;;5030481;28;20632;-74
2021/10/31 05:43:50;;;;;;;14.10;8.67;;;;;;;;;;5028966;28;20217;-67
2021/10/31 05:46:15;;;;;;;13.00;8.63;;;;;;;;;;5022256;28;20166;-65
2021/10/31 05:48:41;;;;;;;12.17;8.13;;;;;;;;;;5033557;28;20177;-71
2021/10/31 05:51:06;;;;;;;14.30;8.30;;;;;;;;;;5020736;28;20213;-66
2021/10/31 05:53:31;;;;;;;13.63;8.37;;;;;;;;;;5016385;28;20193;-66
2021/10/31 05:55:57;;;;;;;16.20;9.03;;;;;;;;;;5033291;28;20150;-68
2021/10/31 05:58:22;;;;;;;16.77;8.60;;;;;;;;;;5033575;28;20169;-67
2021/10/31 06:00:48;;;;;;;17.13;8.50;;;;;;;;;;5023536;28;20253;-69
2021/10/31 06:03:13;;;;;;;11.93;7.83;;;;;;;;;;5013443;28;20167;-68
2021/10/31 06:05:39;;;;;;;14.17;9.13;;;;;;;;;;5020142;28;20189;-68
2021/10/31 06:08:12;;;;;;;13.73;8.33;;;;;;;;;;5028337;28;20204;-67
2021/10/31 06:10:37;;;;;;;15.50;8.70;;;;;;;;;;5013215;28;20413;-68
2021/10/31 06:13:03;;;;;;;16.20;8.23;;;;;;;;;;5012841;28;20975;-70
2021/10/31 06:15:28;;;;;;;15.30;9.77;;;;;;;;;;5012998;28;20512;-73
2021/10/31 06:17:53;;;;;;;14.10;8.73;;;;;;;;;;5012968;28;20245;-73
2021/10/31 06:20:19;;;;;;;15.10;8.63;;;;;;;;;;5018229;28;20153;-73
2021/10/31 06:22:44;;;;;;;17.50;7.93;;;;;;;;;;5032489;28;20338;-72
2021/10/31 06:25:09;;;;;;;13.70;8.90;;;;;;;;;;5029475;28;20636;-69
2021/10/31 06:27:35;;;;;;;16.10;9.23;;;;;;;;;;5019667;28;20248;-72
2021/10/31 06:30:00;;;;;;;14.97;9.43;;;;;;;;;;5023670;28;20241;-68
2021/10/31 06:32:26;;;;;;;16.23;9.40;;;;;;;;;;5032448;28;20243;-67
2021/10/31 06:34:51;;;;;;;15.53;8.60;;;;;;;;;;5030906;28;20526;-73
2021/10/31 06:37:17;;;;;;;13.87;8.50;;;;;;;;;;5031746;28;20228;-72
2021/10/31 06:39:42;;;;;;;12.73;7.67;;;;;;;;;;5031609;28;20160;-71
2021/10/31 06:42:08;;;;;;;13.53;8.33;;;;;;;;;;5030621;28;20574;-72
2021/10/31 06:44:33;;;;;;;14.70;9.30;;;;;;;;;;5020946;28;20231;-68
2021/10/31 06:46:58;;;;;;;13.60;8.07;;;;;;;;;;5019752;28;20245;-69
2021/10/31 06:49:23;;;;;;;12.83;7.93;;;;;;;;;;5022350;28;20165;-68
2021/10/31 06:51:49;;;;;;;15.47;8.07;;;;;;;;;;5017691;28;20169;-76
2021/10/31 06:54:15;;;;;;;13.80;8.57;;;;;;;;;;5011034;28;20687;-68
2021/10/31 06:56:40;;;;;;;14.83;8.53;;;;;;;;;;5018312;28;20177;-69
2021/10/31 06:59:06;;;;;;;18.27;8.63;;;;;;;;;;5031372;28;20428;-65
2021/10/31 07:01:31;;;;;;;16.53;8.87;;;;;;;;;;5031322;28;20232;-64
2021/10/31 07:03:56;;;;;;;15.67;8.30;;;;;;;;;;5031311;28;20154;-69
2021/10/31 07:06:22;;;;;;;12.20;9.50;;;;;;;;;;5031585;28;20165;-67
2021/10/31 07:08:47;;;;;;;14.23;8.27;;;;;;;;;;5014621;28;20163;-67
2021/10/31 07:11:12;;;;;;;15.47;9.57;;;;;;;;;;5026309;28;20165;-65
2021/10/31 07:13:38;;;;;;;18.33;9.40;;;;;;;;;;5023227;28;20289;-63
2021/10/31 07:16:03;;;;;;;15.20;8.70;;;;;;;;;;5027314;28;20242;-71
2021/10/31 07:18:29;;;;;;;16.40;8.93;;;;;;;;;;5012094;28;20660;-76
2021/10/31 07:20:54;;;;;;;13.47;8.73;;;;;;;;;;5012458;28;20166;-65
2021/10/31 07:23:20;;;;;;;12.53;8.00;;;;;;;;;;5018174;28;20220;-76
2021/10/31 07:25:45;;;;;;;13.87;8.77;;;;;;;;;;5031401;28;20170;-67
2021/10/31 07:28:10;;;;;;;16.70;8.03;;;;;;;;;;5031303;28;20154;-77
2021/10/31 07:30:36;;;;;;;14.80;9.00;;;;;;;;;;5031485;28;20157;-72
2021/10/31 07:33:02;;;;;;;23.50;9.80;;;;;;;;;;5029584;28;20197;-71
2021/10/31 07:35:28;;;;;;;11.60;8.43;;;;;;;;;;5023273;28;20165;-67
2021/10/31 07:37:54;;;;;;;13.00;8.93;;;;;;;;;;5011265;28;20250;-68
2021/10/31 07:40:19;;;;;;;16.10;8.73;;;;;;;;;;5011568;28;20455;-67
2021/10/31 07:42:45;;;;;;;13.70;8.50;;;;;;;;;;5010989;28;20297;-72
2021/10/31 07:45:10;;;;;;;13.43;8.10;;;;;;;;;;5010620;28;20162;-68
2021/10/31 07:47:36;;;;;;;14.20;8.90;;;;;;;;;;5028184;28;20219;-72
2021/10/31 07:50:02;;;;;;;16.37;9.40;;;;;;;;;;5010921;28;20167;-68
2021/10/31 07:52:27;;;;;;;11.80;7.43;;;;;;;;;;5017494;28;20186;-66
2021/10/31 07:54:52;;;;;;;11.57;7.03;;;;;;;;;;5011315;28;20197;-68
2021/10/31 07:57:20;;;;;;;15.80;8.50;;;;;;;;;;5011329;28;20583;-65
2021/10/31 07:59:45;;;;;;;15.57;8.40;;;;;;;;;;5011200;28;20167;-66
2021/10/31 08:02:11;;;;;;;12.00;7.73;;;;;;;;;;5011184;28;20409;-64
2021/10/31 08:04:37;;;;;;;17.17;8.73;;;;;;;;;;5030092;28;20207;-69
2021/10/31 08:07:02;;;;;;;11.60;7.23;;;;;;;;;;5030510;28;20197;-74
2021/10/31 08:09:27;;;;;;;18.93;8.37;;;;;;;;;;5030548;28;20146;-68
2021/10/31 08:11:53;;;;;;;12.70;7.57;;;;;;;;;;5014249;28;20580;-68
2021/10/31 08:14:18;;;;;;;11.30;7.30;;;;;;;;;;5010824;28;20173;-70
2021/10/31 08:16:43;;;;;;;13.63;7.40;;;;;;;;;;5010900;28;20146;-67
2021/10/31 08:19:09;;;;;;;14.17;9.17;;;;;;;;;;5017454;28;20209;-68
2021/10/31 08:21:34;;;;;;;12.87;8.40;;;;;;;;;;5017274;28;20378;-77
2021/10/31 08:24:00;;;;;;;13.10;8.10;;;;;;;;;;5010887;28;20154;-75
2021/10/31 08:26:26;;;;;;;10.80;7.43;;;;;;;;;;5010976;28;20180;-72
2021/10/31 08:28:52;;;;;;;13.60;7.77;;;;;;;;;;5020953;28;20217;-68
2021/10/31 08:31:23;;;;;;;13.53;8.10;;;;;;;;;;5025624;28;21037;-67
2021/10/31 08:33:54;;;;;;;15.83;8.80;;;;;;;;;;5010787;28;20201;-76
2021/10/31 08:36:20;;;;;;;11.50;7.30;;;;;;;;;;5011580;28;20835;-70
2021/10/31 08:38:45;;;;;;;13.80;8.07;;;;;;;;;;5010340;28;20556;-72
2021/10/31 08:41:10;;;;;;;12.07;6.70;;;;;;;;;;5010658;28;20178;-69
2021/10/31 08:43:38;;;;;;;12.30;8.07;;;;;;;;;;5010562;28;20158;-68
2021/10/31 08:46:03;;;;;;;11.23;7.80;;;;;;;;;;5022229;28;20605;-74
2021/10/31 08:48:30;;;;;;;14.40;8.17;;;;;;;;;;5030145;28;20403;-73
2021/10/31 08:50:55;;;;;;;11.80;7.37;;;;;;;;;;5022300;28;20566;-73
2021/10/31 08:53:23;;;;;;;14.47;7.40;;;;;;;;;;5010582;28;20475;-74
2021/10/31 08:55:49;;;;;;;11.47;7.13;;;;;;;;;;5009000;28;20539;-76
2021/10/31 08:58:14;;;;;;;14.13;7.40;;;;;;;;;;5010777;28;20417;-67
2021/10/31 09:00:40;;;;;;;12.23;8.27;;;;;;;;;;5010179;28;20508;-72
2021/10/31 09:03:06;;;;;;;11.10;7.43;;;;;;;;;;5018650;28;20162;-67
2021/10/31 09:05:33;;;;;;;12.30;7.47;;;;;;;;;;5021204;28;20626;-72
2021/10/31 09:07:58;;;;;;;15.90;7.60;;;;;;;;;;5010453;28;20481;-70
2021/10/31 09:10:23;;;;;;;15.23;7.47;;;;;;;;;;5010762;28;20409;-68
2021/10/31 09:12:49;;;;;;;13.23;6.57;;;;;;;;;;5010159;28;20564;-67
2021/10/31 09:15:14;;;;;;;13.20;8.60;;;;;;;;;;5016234;28;20168;-69
2021/10/31 09:17:39;;;;;;;12.10;8.40;;;;;;;;;;5031883;28;20154;-72
2021/10/31 09:20:05;;;;;;;9.33;6.67;;;;;;;;;;5016000;28;20225;-67
2021/10/31 09:22:31;;;;;;;13.00;7.73;;;;;;;;;;5013922;28;20151;-66
2021/10/31 09:24:56;;;;;;;11.37;7.40;;;;;;;;;;5019584;28;20174;-74
2021/10/31 09:27:22;;;;;;;14.20;7.50;;;;;;;;;;5025519;28;20487;-66
2021/10/31 09:29:47;;;;;;;10.97;6.60;;;;;;;;;;5033444;28;20170;-71
2021/10/31 09:32:13;;;;;;;11.70;7.10;;;;;;;;;;5027778;28;20198;-67
2021/10/31 09:34:38;;;;;;;11.43;7.33;;;;;;;;;;5021309;28;20173;-79
2021/10/31 09:37:06;;;;;;;15.70;7.60;;;;;;;;;;5032386;28;20213;-76
2021/10/31 09:39:32;;;;;;;13.50;8.17;;;;;;;;;;5034380;28;20678;-82
2021/10/31 09:41:57;;;;;;;10.33;6.97;;;;;;;;;;5031963;28;20409;-75
2021/10/31 09:44:31;;;;;;;12.13;7.40;;;;;;;;;;5032634;28;20161;-82
2021/10/31 09:46:58;;;;;;;12.70;7.27;;;;;;;;;;5033477;28;20178;-74
2021/10/31 09:49:24;;;;;;;13.47;8.87;;;;;;;;;;5033286;28;20430;-74
2021/10/31 09:51:50;;;;;;;14.43;7.90;;;;;;;;;;5033052;28;20161;-76
2021/10/31 09:54:16;;;;;;;13.30;7.63;;;;;;;;;;5032898;28;20463;-86
2021/10/31 09:56:42;;;;;;;10.73;7.17;;;;;;;;;;5033064;28;20388;-80
2021/10/31 09:59:12;;;;;;;12.23;6.80;;;;;;;;;;5033316;28;20470;-70
2021/10/31 10:04:25;;;;;;;13.13;6.93;;;;;;;;;;5033099;28;20778;-77
2021/10/31 10:06:51;;;;;;;10.60;5.73;;;;;;;;;;5033079;28;20756;-74
2021/10/31 10:09:17;;;;;;;11.10;7.17;;;;;;;;;;5033045;28;20753;-73
2021/10/31 10:11:44;;;;;;;15.37;7.60;;;;;;;;;;5028311;28;20437;-73
2021/10/31 10:14:17;;;;;;;17.40;7.40;;;;;;;;;;5013452;28;20248;-76
2021/10/31 10:16:43;;;;;;;17.50;7.07;;;;;;;;;;5013272;28;20429;-74
2021/10/31 10:19:16;;;;;;;13.80;7.20;;;;;;;;;;5013510;28;20480;-73
2021/10/31 10:21:42;;;;;;;10.40;6.77;;;;;;;;;;5012420;28;20807;-75
2021/10/31 10:24:09;;;;;;;17.90;7.33;;;;;;;;;;5012997;28;20915;-76
2021/10/31 10:26:39;;;;;;;10.83;7.50;;;;;;;;;;5013333;28;20166;-76
2021/10/31 10:29:17;;;;;;;11.60;6.60;;;;;;;;;;5013076;28;20913;-75
2021/10/31 10:31:48;;;;;;;11.83;7.07;;;;;;;;;;5013344;28;20900;-71
2021/10/31 10:34:13;;;;;;;14.60;7.10;;;;;;;;;;5013071;28;20456;-80
2021/10/31 10:36:43;;;;;;;10.80;7.17;;;;;;;;;;5013022;28;20401;-74
2021/10/31 10:39:18;;;;;;;11.43;7.30;;;;;;;;;;5012866;28;20174;-70
2021/10/31 10:41:47;;;;;;;10.17;6.33;;;;;;;;;;5013548;28;20386;-74
2021/10/31 10:44:16;;;;;;;12.57;7.87;;;;;;;;;;5013187;28;20464;-77
2021/10/31 10:46:41;;;;;;;15.57;7.17;;;;;;;;;;5013023;28;20390;-79
2021/10/31 10:49:08;;;;;;;10.80;7.03;;;;;;;;;;5012802;28;20413;-77
2021/10/31 10:51:33;;;;;;;11.00;7.20;;;;;;;;;;5016775;28;20159;-79
2021/10/31 10:54:17;;;;;;;14.43;6.67;;;;;;;;;;5022418;28;20472;-72
2021/10/31 10:57:02;;;;;;;12.10;6.83;;;;;;;;;;5018327;28;20154;-65
2021/10/31 10:59:28;;;;;;;13.90;8.83;;;;;;;;;;5016183;28;20433;-66
2021/10/31 11:02:20;;;;;;;10.17;7.07;;;;;;;;;;5021905;28;20413;-74
2021/10/31 11:04:46;;;;;;;13.20;7.87;;;;;;;;;;5013062;28;20189;-74
2021/10/31 11:07:13;;;;;;;12.03;6.97;;;;;;;;;;5018152;28;20826;-71
2021/10/31 11:09:42;;;;;;;15.00;7.37;;;;;;;;;;5036489;28;20411;-69
2021/10/31 11:12:21;;;;;;;10.57;7.20;;;;;;;;;;5051792;28;20825;-77
2021/10/31 11:14:48;;;;;;;11.43;7.43;;;;;;;;;;5052107;28;20392;-76
2021/10/31 11:17:13;;;;;;;12.80;7.87;;;;;;;;;;5035380;28;21198;-67
2021/10/31 11:19:40;;;;;;;14.23;7.80;;;;;;;;;;5035027;28;20407;-67
2021/10/31 11:22:06;;;;;;;12.60;6.57;;;;;;;;;;5051963;28;20568;-72
2021/10/31 11:24:32;;;;;;;10.43;6.93;;;;;;;;;;5038592;28;20914;-68
2021/10/31 11:26:58;;;;;;;16.20;7.43;;;;;;;;;;5031685;28;20227;-72
2021/10/31 11:29:26;;;;;;;12.73;7.40;;;;;;;;;;5018678;28;20416;-70
2021/10/31 11:31:51;;;;;;;13.30;6.53;;;;;;;;;;5012010;28;20382;-67
2021/10/31 11:34:16;;;;;;;13.63;7.20;;;;;;;;;;5010206;28;20535;-70
2021/10/31 11:36:42;;;;;;;13.67;7.30;;;;;;;;;;5038378;28;20157;-67
2021/10/31 11:39:07;;;;;;;11.87;7.73;;;;;;;;;;5051325;28;20157;-73
2021/10/31 11:41:34;;;;;;;13.40;7.30;;;;;;;;;;5051400;28;20165;-73
2021/10/31 11:43:59;;;;;;;17.37;8.70;;;;;;;;;;5051700;28;20183;-66
2021/10/31 11:46:41;;;;;;;13.10;7.67;;;;;;;;;;5038229;28;20397;-70
2021/10/31 11:49:06;;;;;;;10.60;6.97;;;;;;;;;;5011224;28;20158;-70
2021/10/31 11:51:42;;;;;;;13.30;7.43;;;;;;;;;;5011550;28;20408;-74
2021/10/31 11:54:07;;;;;;;13.17;7.80;;;;;;;;;;5011184;28;20234;-69
2021/10/31 11:56:40;;;;;;;16.83;8.23;;;;;;;;;;5011597;28;20394;-68
2021/10/31 11:59:14;;;;;;;17.50;8.83;;;;;;;;;;5011868;28;20228;-73
2021/10/31 12:01:40;;;;;;;13.50;8.47;;;;;;;;;;5011509;28;20404;-68
2021/10/31 12:04:09;;;;;;;14.83;8.20;;;;;;;;;;5011986;28;20382;-68
2021/10/31 12:06:35;;;;;;;14.80;9.30;;;;;;;;;;5011647;28;20154;-71
2021/10/31 12:09:04;;;;;;;12.60;7.70;;;;;;;;;;5011357;28;20421;-67
2021/10/31 12:11:29;;;;;;;16.20;8.20;;;;;;;;;;5011681;28;20393;-67
2021/10/31 12:13:58;;;;;;;13.37;7.57;;;;;;;;;;5011519;28;20464;-67
2021/10/31 12:16:24;;;;;;;13.73;7.70;;;;;;;;;;5011331;28;20515;-69
2021/10/31 12:18:51;;;;;;;12.07;7.30;;;;;;;;;;5011382;28;20943;-64
2021/10/31 12:21:25;;;;;;;15.27;7.87;;;;;;;;;;5011196;28;20154;-66
2021/10/31 12:23:52;;;;;;;16.30;9.00;;;;;;;;;;5011090;28;20972;-72
2021/10/31 12:26:18;;;;;;;13.43;7.80;;;;;;;;;;5010933;28;20447;-70
2021/10/31 12:28:44;;;;;;;13.47;7.57;;;;;;;;;;5011093;28;20394;-65
2021/10/31 12:31:38;;;;;;;14.80;8.23;;;;;;;;;;5011031;28;21276;-66
2021/10/31 12:34:05;;;;;;;15.27;8.43;;;;;;;;;;5014749;28;20707;-70
2021/10/31 12:36:30;;;;;;;13.37;7.27;;;;;;;;;;5024164;28;20400;-65
2021/10/31 12:39:14;;;;;;;13.23;7.87;;;;;;;;;;5030741;28;20408;-71
2021/10/31 12:41:40;;;;;;;18.70;7.40;;;;;;;;;;5030510;28;20149;-67
2021/10/31 12:44:11;;;;;;;11.97;7.87;;;;;;;;;;5030802;28;20381;-68
2021/10/31 12:46:36;;;;;;;12.50;7.90;;;;;;;;;;5030604;28;20150;-66
2021/10/31 12:49:03;;;;;;;14.20;8.43;;;;;;;;;;5030269;28;20445;-68
2021/10/31 12:52:01;;;;;;;13.10;8.17;;;;;;;;;;5033130;28;20202;-68
2021/10/31 12:54:27;;;;;;;19.07;11.10;;;;;;;;;;5034506;28;20463;-67
2021/10/31 12:56:54;;;;;;;14.30;8.10;;;;;;;;;;5034209;28;20396;-73
2021/10/31 12:59:20;;;;;;;9.43;6.80;;;;;;;;;;5034338;28;20443;-68
2021/10/31 13:01:46;;;;;;;12.70;7.80;;;;;;;;;;5033416;28;20503;-74
2021/10/31 13:04:12;;;;;;;13.00;7.53;;;;;;;;;;5034538;28;20675;-68
2021/10/31 13:06:56;;;;;;;12.50;7.43;;;;;;;;;;5032553;28;20427;-69
2021/10/31 13:09:21;;;;;;;16.03;8.83;;;;;;;;;;5023847;28;20249;-68
2021/10/31 13:11:47;;;;;;;13.90;8.47;;;;;;;;;;5034368;28;20902;-69
2021/10/31 13:14:41;;;;;;;14.63;8.10;;;;;;;;;;5034085;28;20703;-63
2021/10/31 13:17:07;;;;;;;15.73;7.80;;;;;;;;;;5038173;28;20181;-68
2021/10/31 13:19:33;;;;;;;12.27;7.73;;;;;;;;;;5034069;28;20404;-72
2021/10/31 13:22:01;;;;;;;14.13;7.77;;;;;;;;;;5033446;28;20248;-67
2021/10/31 13:24:27;;;;;;;11.90;7.73;;;;;;;;;;5033970;28;20407;-71
2021/10/31 13:26:52;;;;;;;12.70;6.93;;;;;;;;;;5028054;28;20404;-69
2021/10/31 13:29:18;;;;;;;40.47;9.90;;;;;;;;;;5032607;28;20969;-70
2021/10/31 13:31:43;;;;;;;10.03;6.70;;;;;;;;;;5029941;28;22028;-71
2021/10/31 13:34:10;;;;;;;14.73;8.23;;;;;;;;;;5022598;28;20186;-66
2021/10/31 13:36:36;;;;;;;11.90;7.83;;;;;;;;;;5014379;28;20155;-69
2021/10/31 13:39:02;;;;;;;13.87;7.53;;;;;;;;;;5030417;28;20407;-70
2021/10/31 13:41:41;;;;;;;11.60;7.23;;;;;;;;;;5033226;28;20404;-73
2021/10/31 13:44:13;;;;;;;10.73;6.93;;;;;;;;;;5033868;28;20165;-66
2021/10/31 13:46:50;;;;;;;19.37;8.13;;;;;;;;;;5032578;28;20396;-65
2021/10/31 13:49:20;;;;;;;13.20;8.37;;;;;;;;;;5031800;28;20428;-67
2021/10/31 13:51:47;;;;;;;15.03;7.57;;;;;;;;;;5033375;28;20411;-64
2021/10/31 13:54:13;;;;;;;11.27;8.27;;;;;;;;;;5032442;28;20853;-64
2021/10/31 13:56:39;;;;;;;11.67;7.10;;;;;;;;;;5029980;28;20404;-68
2021/10/31 13:59:05;;;;;;;12.87;7.83;;;;;;;;;;5033454;28;20185;-71
2021/10/31 14:01:33;;;;;;;16.40;8.20;;;;;;;;;;5032503;28;20401;-66
2021/10/31 14:04:09;;;;;;;11.60;7.77;;;;;;;;;;5013374;28;20394;-69
2021/10/31 14:06:35;;;;;;;12.40;7.83;;;;;;;;;;5021959;28;20783;-68
2021/10/31 14:09:00;;;;;;;15.40;9.40;;;;;;;;;;5031786;28;20416;-66
2021/10/31 14:11:26;;;;;;;16.67;9.20;;;;;;;;;;5022009;28;20169;-71
2021/10/31 14:13:51;;;;;;;16.77;8.23;;;;;;;;;;5032867;28;20255;-68
2021/10/31 14:16:20;;;;;;;28.13;9.40;;;;;;;;;;5021612;28;20169;-65
2021/10/31 14:18:46;;;;;;;23.03;10.90;;;;;;;;;;5013172;28;20158;-63
2021/10/31 14:21:13;;;;;;;14.70;7.93;;;;;;;;;;5013406;28;20793;-68
2021/10/31 14:23:40;;;;;;;17.37;9.90;;;;;;;;;;5016933;28;20154;-73
2021/10/31 14:26:07;;;;;;;19.00;8.93;;;;;;;;;;5032781;28;20745;-67
2021/10/31 14:28:35;;;;;;;16.13;8.43;;;;;;;;;;5021347;28;20394;-68
2021/10/31 14:31:02;;;;;;;14.27;8.93;;;;;;;;;;5013010;28;20396;-73